Terminal Aerodrome Forecast
Issued by NWS Houston/Galveston, TX

Current Version | Previous Version | Text Only | Print | Product List | Glossary On
Versions: 1 2 3 4 5 6 7 8 9 10 11 12 13
000
FTUS44 KHGX 222325
TAFGLS
TAF
KGLS 222325Z 2300/2324 13008KT P6SM FEW020 FEW050
     FM230600 VRB04KT P6SM FEW150
     FM231800 06009KT P6SM VCSH FEW025 SCT050=

USA.gov is the U.S. government's official web portal to all federal, state and local government web resources and services.